• Join FlightAware (Why Join?)
  • Login
  • US Flag 
11:38AM EDT


 

Airport Tracker/Info


-or-


 

Live Flight TrackerFlight Track Log ✈ AWE3202 ✈ 25-Apr-2013 ✈ KDCA - KMHT

Flight Track Log - Related Links

Times and Time Zones

All times are in EDT time to prevent confusion due to time zone crossing. See the AWE3202 flight status page for this flight to view local times or setup timezone preferences in your user account.

Time Position Orientation Groundspeed Altitude Reporting Facility
EDT Latitude Longitude Course Direction KTS MPH feet Rate Location/Type
10:22PM 38.8167 -77.0333 83° East 147 169 1,700  Level Potomac TRACON
10:23PM 38.8000 -76.9833 113° Southeast 219 252 3,300 2,220 Climbing Potomac TRACON
10:24PM 39.0276 -76.5338 67° East  Level FlightAware Approximate
10:24PM 38.8500 -76.9500 27° Northeast 264 304 6,200  Level Potomac TRACON
10:25PM 39.0773 -76.4087 61° Northeast  Level FlightAware Approximate
10:26PM 39.1167 -76.2810 90° East  Level FlightAware Approximate
10:26PM 38.9908 -76.7853 42° Northeast 295 339 11,300  Level Washington Center
10:27PM 39.1559 -76.1575 83° East  Level FlightAware Approximate
10:27PM 39.0253 -76.6578 71° East 327 376 14,000  Level Washington Center
10:28PM 39.0639 -76.5244 70° East 358 412 15,500 1,680 Climbing Washington Center
10:29PM 39.1044 -76.3833 70° East 396 456 17,400 1,620 Climbing Washington Center
10:30PM 39.1450 -76.2339 71° East 423 487 18,800 1,500 Climbing Washington Center
10:31PM 39.1708 -76.0761 78° East 437 503 20,500 1,500 Climbing Washington Center
10:32PM 39.1922 -75.9075 81° East 451 519 21,900 1,320 Climbing Washington Center
10:33PM 39.2694 -75.7739 53° Northeast 457 526 23,200 1,200 Climbing Washington Center
10:34PM 39.3678 -75.6506 44° Northeast 465 535 24,400 1,140 Climbing Washington Center
10:35PM 39.4697 -75.5244 44° Northeast 479 551 25,500 1,020 Climbing Washington Center
10:36PM 39.5697 -75.3922 46° Northeast 497 572 26,500 1,020 Climbing Washington Center
10:37PM 39.6714 -75.2572 46° Northeast 509 586 27,600 960 Climbing Washington Center
10:37PM 39.7114 -75.2019 47° Northeast 514 592 27,900 840 Climbing New York Center
10:38PM 39.8125 -75.0569 48° Northeast 561 646 28,800 540 Climbing New York Center
10:39PM 39.9117 -74.9142 48° Northeast 545 627 29,000 60 Climbing New York Center
10:40PM 40.0211 -74.7581 47° Northeast 536 617 29,000  Level New York Center
10:41PM 40.1278 -74.6258 43° Northeast 531 611 29,000  Level New York Center
10:42PM 40.2542 -74.5783 16° North 521 600 29,000  Level New York Center
10:43PM 40.3956 -74.5317 14° North 516 594 29,000  Level New York Center
10:44PM 40.5342 -74.4903 13° North 516 594 29,000  Level New York Center
10:45PM 40.6750 -74.4514 12° North 516 594 29,000  Level New York Center
10:46PM 40.8181 -74.4069 13° North 516 594 29,000  Level New York Center
10:49PM 41.1594 -74.3039 13° North 526 605 29,000  Level Boston Center
10:50PM 41.3000 -74.2583 14° North 519 597 29,000  Level Boston Center
10:51PM 41.4422 -74.2153 13° North 514 592 29,000 -360 Level Boston Center
10:52PM 41.5783 -74.1772 12° North 508 585 28,300 -1,200 Descending Boston Center
10:53PM 41.7103 -74.1336 14° North 502 578 26,600 -1,500 Descending Boston Center
10:54PM 41.8425 -74.0703 20° North 479 551 25,100 -780 Descending Boston Center
10:55PM 41.9428 -73.9028 51° Northeast 447 514 25,000 -60 Descending Boston Center
10:56PM 42.0197 -73.7592 54° Northeast 455 524 25,000 -360 Level Boston Center
10:57PM 42.0919 -73.6208 55° Northeast 478 550 24,300 -720 Descending Boston Center
10:58PM 42.1747 -73.4711 53° Northeast 478 550 23,600 -1,140 Descending Boston Center
10:59PM 42.2469 -73.3347 54° Northeast 464 534 22,100 -1,680 Descending Boston Center
11:00PM 42.3208 -73.1983 54° Northeast 445 512 20,300 -1,560 Descending Boston Center
11:01PM 42.3819 -73.0753 56° Northeast 438 504 19,000 -660 Descending Boston Center
11:02PM 42.4597 -72.9297 54° Northeast 425 489 19,000  Level Boston Center
11:03PM 42.5206 -72.8119 55° Northeast 425 489 19,000 -120 Level Boston Center
11:04PM 42.5731 -72.6628 64° Northeast 419 482 18,800 -960 Descending Boston Center
11:05PM 42.6233 -72.5219 64° Northeast 419 482 17,100 -2,220 Descending Boston Center
11:06PM 42.6714 -72.3808 65° Northeast 419 482 14,400 -2,700 Descending Boston Center
11:07PM 42.7150 -72.2394 67° East 381 438 11,700 -2,100 Descending Boston Center
11:08PM 42.7481 -72.1403 66° East 326 375 10,300 -1,380 Descending Boston Center
11:09PM 42.7769 -72.0300 70° East 290 334 9,000 -1,200 Descending Boston Center
11:10PM 42.7725 -71.9450 94° East 258 297 8,000 -1,800 Descending Boston Center
11:11PM 42.7678 -71.8489 94° East 242 278 5,400 -2,160 Descending Boston Center
11:12PM 42.7631 -71.7700 95° East 232 267 3,700 -1,260 Descending Boston Center
11:13PM 42.7689 -71.6878 84° East 211 243 2,900 -900 Descending Boston Center
11:14PM 42.7894 -71.6308 64° Northeast 186 214 2,000 -900 Descending Boston Center